createdAt,value
2023-02-19T00:01:13.740Z,9.77
2023-02-19T00:03:40.677Z,5.38
2023-02-19T00:06:09.353Z,6.60
2023-02-19T00:08:36.756Z,7.97
2023-02-19T00:11:08.316Z,7.68
2023-02-19T00:13:42.681Z,9.03
2023-02-19T00:16:14.776Z,10.00
2023-02-19T00:18:42.019Z,10.80
2023-02-19T00:21:09.241Z,9.20
2023-02-19T00:23:36.243Z,9.50
2023-02-19T00:26:18.164Z,10.20
2023-02-19T00:28:46.415Z,8.77
2023-02-19T00:31:15.992Z,6.55
2023-02-19T00:33:42.833Z,10.32
2023-02-19T00:36:09.691Z,8.60
2023-02-19T00:38:37.018Z,11.23
2023-02-19T00:41:19.263Z,9.55
2023-02-19T00:43:52.635Z,3.45
2023-02-19T00:46:26.380Z,4.97
2023-02-19T00:48:53.333Z,7.25
2023-02-19T00:51:20.956Z,12.07
2023-02-19T00:53:47.816Z,11.02
2023-02-19T00:56:14.597Z,8.50
2023-02-19T00:58:41.418Z,12.70
2023-02-19T01:01:09.086Z,12.40
2023-02-19T01:03:36.379Z,5.87
2023-02-19T01:06:03.783Z,8.52
2023-02-19T01:08:33.585Z,10.70
2023-02-19T01:11:00.822Z,7.50
2023-02-19T01:13:28.441Z,8.13
2023-02-19T01:16:03.538Z,5.73
2023-02-19T01:18:30.960Z,7.88
2023-02-19T01:20:57.759Z,3.50
2023-02-19T01:23:24.540Z,4.82
2023-02-19T01:25:51.341Z,8.10
2023-02-19T01:28:18.120Z,7.60
2023-02-19T01:30:44.890Z,10.43
2023-02-19T01:33:11.766Z,5.88
2023-02-19T01:35:39.018Z,8.48
2023-02-19T01:38:07.530Z,8.60
2023-02-19T01:40:34.660Z,8.93
2023-02-19T01:43:01.490Z,8.55
2023-02-19T01:45:28.990Z,7.15
2023-02-19T01:48:04.642Z,7.05
2023-02-19T01:50:33.214Z,7.85
2023-02-19T01:53:00.423Z,9.27
2023-02-19T01:55:27.226Z,6.40
2023-02-19T01:57:54.172Z,10.90
2023-02-19T02:00:21.051Z,7.82
2023-02-19T02:02:49.895Z,12.65
2023-02-19T02:05:45.443Z,9.97
2023-02-19T02:08:31.586Z,6.38
2023-02-19T02:10:58.483Z,7.47
2023-02-19T02:13:25.314Z,11.82
2023-02-19T02:16:00.492Z,10.90
2023-02-19T02:18:52.887Z,8.33
2023-02-19T02:21:57.167Z,8.10
2023-02-19T02:24:45.590Z,7.65
2023-02-19T02:27:30.849Z,6.28
2023-02-19T02:30:03.540Z,6.85
2023-02-19T02:32:59.604Z,10.43
2023-02-19T02:35:28.680Z,10.50
2023-02-19T02:37:57.237Z,7.47
2023-02-19T02:40:24.040Z,9.13
2023-02-19T02:42:50.837Z,8.95
2023-02-19T02:45:35.293Z,7.47
2023-02-19T02:48:08.191Z,9.05
2023-02-19T02:50:42.038Z,7.47
2023-02-19T02:53:30.566Z,11.13
2023-02-19T02:55:57.774Z,6.63
2023-02-19T02:58:24.834Z,6.50
2023-02-19T03:01:13.676Z,6.55
2023-02-19T03:03:41.516Z,6.63
2023-02-19T03:06:08.348Z,7.43
2023-02-19T03:08:37.294Z,6.05
2023-02-19T03:11:29.157Z,6.47
2023-02-19T03:14:28.051Z,11.98
2023-02-19T03:17:15.687Z,6.22
2023-02-19T03:19:43.705Z,6.97
2023-02-19T03:22:20.120Z,7.38
2023-02-19T03:25:13.477Z,7.43
2023-02-19T03:27:41.206Z,6.78
2023-02-19T03:30:17.246Z,8.27
2023-02-19T03:32:53.471Z,6.13
2023-02-19T03:35:24.912Z,7.28
2023-02-19T03:38:09.375Z,5.47
2023-02-19T03:40:42.305Z,6.47
2023-02-19T03:43:41.428Z,6.20
2023-02-19T03:46:37.072Z,5.55
2023-02-19T03:49:06.802Z,7.70
2023-02-19T03:51:54.335Z,7.93
2023-02-19T03:54:32.139Z,10.32
2023-02-19T03:57:32.463Z,4.03
2023-02-19T04:00:02.285Z,8.55
2023-02-19T04:02:50.352Z,6.45
2023-02-19T04:05:19.218Z,8.00
2023-02-19T04:07:47.160Z,6.90
2023-02-19T04:10:14.185Z,9.60
2023-02-19T04:12:42.132Z,6.57
2023-02-19T04:15:13.700Z,7.82
2023-02-19T04:17:46.250Z,9.43
2023-02-19T04:20:13.048Z,11.27
2023-02-19T04:22:39.944Z,4.53
2023-02-19T04:25:06.966Z,5.97
2023-02-19T04:27:39.221Z,4.60
2023-02-19T04:30:08.184Z,4.97
2023-02-19T04:32:34.999Z,5.28
2023-02-19T04:35:01.805Z,4.13
2023-02-19T04:37:28.578Z,6.20
2023-02-19T04:39:55.366Z,7.65
2023-02-19T04:42:22.136Z,9.23
2023-02-19T04:44:48.942Z,4.93
2023-02-19T04:47:18.401Z,6.38
2023-02-19T04:49:45.582Z,5.78
2023-02-19T04:52:12.371Z,6.72
2023-02-19T04:54:39.172Z,8.23
2023-02-19T04:57:06.113Z,7.07
2023-02-19T04:59:32.974Z,5.80
2023-02-19T05:01:59.785Z,6.05
2023-02-19T05:04:26.723Z,5.13
2023-02-19T05:06:53.566Z,10.30
2023-02-19T05:09:20.340Z,6.22
2023-02-19T05:11:47.173Z,7.00
2023-02-19T05:14:13.980Z,5.68
2023-02-19T05:16:40.794Z,4.55
2023-02-19T05:19:07.610Z,6.57
2023-02-19T05:21:34.481Z,3.92
2023-02-19T05:24:01.278Z,7.85
2023-02-19T05:26:28.735Z,6.78
2023-02-19T05:28:55.512Z,5.25
2023-02-19T05:31:22.485Z,5.82
2023-02-19T05:33:51.508Z,3.58
2023-02-19T05:36:19.316Z,8.85
2023-02-19T05:38:46.208Z,9.88
2023-02-19T05:41:14.720Z,8.18
2023-02-19T05:43:42.222Z,7.97
2023-02-19T05:46:09.796Z,6.15
2023-02-19T05:48:36.699Z,8.27
2023-02-19T05:51:04.601Z,6.43
2023-02-19T05:53:31.464Z,5.88
2023-02-19T05:55:58.356Z,9.17
2023-02-19T05:58:25.439Z,7.95
2023-02-19T06:00:52.451Z,8.93
2023-02-19T06:03:19.230Z,4.18
2023-02-19T06:05:46.035Z,7.45
2023-02-19T06:08:16.153Z,9.57
2023-02-19T06:10:43.163Z,11.20
2023-02-19T06:13:10.287Z,9.25
2023-02-19T06:15:37.317Z,7.13
2023-02-19T06:18:04.373Z,4.60
2023-02-19T06:20:31.182Z,7.17
2023-02-19T06:22:58.040Z,5.95
2023-02-19T06:25:24.812Z,8.05
2023-02-19T06:27:51.628Z,7.78
2023-02-19T06:30:18.540Z,6.95
2023-02-19T06:32:45.354Z,7.40
2023-02-19T06:35:12.144Z,6.90
2023-02-19T06:37:38.891Z,8.75
2023-02-19T06:40:06.103Z,6.70
2023-02-19T06:42:33.359Z,6.85
2023-02-19T06:45:00.176Z,6.37
2023-02-19T06:47:26.995Z,10.40
2023-02-19T06:49:53.843Z,9.75
2023-02-19T06:52:20.640Z,10.27
2023-02-19T06:54:47.514Z,11.85
2023-02-19T06:57:14.301Z,11.67
2023-02-19T06:59:41.100Z,6.65
2023-02-19T07:02:09.738Z,5.70
2023-02-19T07:04:36.519Z,5.57
2023-02-19T07:07:03.366Z,8.80
2023-02-19T07:09:30.152Z,8.20
2023-02-19T07:11:57.039Z,7.70
2023-02-19T07:14:23.857Z,6.05
2023-02-19T07:16:51.269Z,7.15
2023-02-19T07:19:18.120Z,7.50
2023-02-19T07:21:44.931Z,7.53
2023-02-19T07:24:11.820Z,7.88
2023-02-19T07:26:38.680Z,7.68
2023-02-19T07:29:05.566Z,6.72
2023-02-19T07:31:32.522Z,7.47
2023-02-19T07:33:59.373Z,8.97
2023-02-19T07:36:26.203Z,9.07
2023-02-19T07:38:56.770Z,8.50
2023-02-19T07:41:24.499Z,6.18
2023-02-19T07:43:51.274Z,12.05
2023-02-19T07:46:18.085Z,6.80
2023-02-19T07:48:45.018Z,9.13
2023-02-19T07:51:18.896Z,6.10
2023-02-19T07:53:46.650Z,6.38
2023-02-19T07:56:13.522Z,7.35
2023-02-19T07:58:40.441Z,5.53
2023-02-19T08:01:12.441Z,8.75
2023-02-19T08:03:39.537Z,7.75
2023-02-19T08:06:06.718Z,7.63
2023-02-19T08:08:33.568Z,7.15
2023-02-19T08:11:20.552Z,13.57
2023-02-19T08:13:50.947Z,8.57
2023-02-19T08:16:29.613Z,6.57
2023-02-19T08:19:00.289Z,6.43
2023-02-19T08:21:27.120Z,6.93
2023-02-19T08:23:53.996Z,7.40
2023-02-19T08:26:20.768Z,8.63
2023-02-19T08:28:48.537Z,7.70
2023-02-19T08:31:15.742Z,6.53
2023-02-19T08:33:42.653Z,9.00
2023-02-19T08:36:10.723Z,8.87
2023-02-19T08:38:37.982Z,7.70
2023-02-19T08:41:09.142Z,6.88
2023-02-19T08:43:36.334Z,7.70
2023-02-19T08:46:03.298Z,6.80
2023-02-19T08:48:30.366Z,9.40
2023-02-19T08:51:02.188Z,6.50
2023-02-19T08:53:28.984Z,7.32
2023-02-19T08:55:55.805Z,6.28
2023-02-19T08:58:22.873Z,6.75
2023-02-19T09:00:49.657Z,9.13
2023-02-19T09:03:16.476Z,6.22
2023-02-19T09:05:43.321Z,6.35
2023-02-19T09:08:10.132Z,7.57
2023-02-19T09:10:36.975Z,8.23
2023-02-19T09:13:03.881Z,6.83
2023-02-19T09:15:30.815Z,6.65
2023-02-19T09:17:57.658Z,10.27
2023-02-19T09:20:24.550Z,6.60
2023-02-19T09:22:56.220Z,6.68
2023-02-19T09:25:23.165Z,8.13
2023-02-19T09:27:49.966Z,7.40
2023-02-19T09:30:16.847Z,5.70
2023-02-19T09:32:43.725Z,6.40
2023-02-19T09:35:10.514Z,6.95
2023-02-19T09:37:37.324Z,5.37
2023-02-19T09:40:04.278Z,5.88
2023-02-19T09:42:31.477Z,6.40
2023-02-19T09:44:59.316Z,6.40
2023-02-19T09:47:27.980Z,4.82
2023-02-19T09:50:03.205Z,6.87
2023-02-19T09:52:41.006Z,5.32
2023-02-19T09:55:31.304Z,4.93
2023-02-19T09:57:59.357Z,6.40
2023-02-19T10:00:30.264Z,3.85
2023-02-19T10:03:07.777Z,5.93
2023-02-19T10:05:34.585Z,5.40
2023-02-19T10:08:01.372Z,5.50
2023-02-19T10:10:32.829Z,4.18
2023-02-19T10:13:20.642Z,4.95
2023-02-19T10:15:52.211Z,4.30
2023-02-19T10:18:41.384Z,5.13
2023-02-19T10:21:10.823Z,5.20
2023-02-19T10:23:37.790Z,4.97
2023-02-19T10:26:04.741Z,4.20
2023-02-19T10:28:34.648Z,4.93
2023-02-19T10:31:03.028Z,4.72
2023-02-19T10:33:30.038Z,6.32
2023-02-19T10:36:05.873Z,3.78
2023-02-19T10:38:34.197Z,4.97
2023-02-19T10:41:08.987Z,5.27
2023-02-19T10:43:37.328Z,5.22
2023-02-19T10:46:29.633Z,5.22
2023-02-19T10:48:57.976Z,6.05
2023-02-19T10:51:51.200Z,4.30
2023-02-19T10:54:25.712Z,4.63
2023-02-19T10:56:52.523Z,5.68
2023-02-19T10:59:19.273Z,3.65
2023-02-19T11:02:02.009Z,5.20
2023-02-19T11:04:38.195Z,3.88
2023-02-19T11:07:13.508Z,5.03
2023-02-19T11:09:52.926Z,5.07
2023-02-19T11:12:30.147Z,5.65
2023-02-19T11:14:57.149Z,3.67
2023-02-19T11:17:28.474Z,4.13
2023-02-19T11:19:59.055Z,4.63
2023-02-19T11:22:32.098Z,4.30
2023-02-19T11:25:25.820Z,3.78
2023-02-19T11:28:37.936Z,4.55
2023-02-19T11:31:24.344Z,3.58
2023-02-19T11:34:14.070Z,3.23
2023-02-19T11:36:41.318Z,3.25
2023-02-19T11:39:17.244Z,3.63
2023-02-19T11:42:02.667Z,4.03
2023-02-19T11:44:43.944Z,4.35
2023-02-19T11:47:33.083Z,3.63
2023-02-19T11:50:18.115Z,4.15
2023-02-19T11:53:20.454Z,5.25
2023-02-19T11:55:47.213Z,6.07
2023-02-19T11:58:51.439Z,4.07
2023-02-19T12:01:55.499Z,3.90
2023-02-19T12:04:31.199Z,4.05
2023-02-19T12:07:30.204Z,4.45
2023-02-19T12:10:02.785Z,4.03
2023-02-19T12:12:41.858Z,3.80
2023-02-19T12:15:17.070Z,3.63
2023-02-19T12:17:48.264Z,3.47
2023-02-19T12:20:52.481Z,3.92
2023-02-19T12:23:56.495Z,4.00
2023-02-19T12:26:41.934Z,3.05
2023-02-19T12:29:30.016Z,4.40
2023-02-19T12:32:29.139Z,4.70
2023-02-19T12:35:24.881Z,5.88
2023-02-19T12:38:11.734Z,4.85
2023-02-19T12:40:50.540Z,5.55
2023-02-19T12:43:23.776Z,3.40
2023-02-19T12:46:09.228Z,5.88
2023-02-19T12:48:39.240Z,3.60
2023-02-19T12:51:25.307Z,7.15
2023-02-19T12:53:57.946Z,6.93
2023-02-19T12:56:43.406Z,7.70
2023-02-19T12:59:18.604Z,8.10
2023-02-19T13:01:49.123Z,9.57
2023-02-19T13:04:34.389Z,8.65
2023-02-19T13:07:07.496Z,9.43
2023-02-19T13:09:57.080Z,12.27
2023-02-19T13:12:26.589Z,13.35
2023-02-19T13:15:16.397Z,12.48
2023-02-19T13:17:49.275Z,14.55
2023-02-19T13:20:35.581Z,12.85
2023-02-19T13:23:42.758Z,15.03
2023-02-19T13:26:32.092Z,14.05
2023-02-19T13:29:23.331Z,11.70
2023-02-19T13:31:53.239Z,11.18
2023-02-19T13:34:29.036Z,9.85
2023-02-19T13:36:55.808Z,10.40
2023-02-19T13:39:22.612Z,9.43
2023-02-19T13:41:50.938Z,7.75
2023-02-19T13:44:23.176Z,7.60
2023-02-19T13:46:50.322Z,10.10
2023-02-19T13:49:23.319Z,10.20
2023-02-19T13:51:56.958Z,10.10
2023-02-19T13:54:23.713Z,9.45
2023-02-19T13:56:50.896Z,8.60
2023-02-19T13:59:37.730Z,8.00
2023-02-19T14:02:04.460Z,7.33
2023-02-19T14:04:43.740Z,7.35
2023-02-19T14:07:10.430Z,7.13
2023-02-19T14:09:37.330Z,6.32
2023-02-19T14:12:04.218Z,5.57
2023-02-19T14:14:55.773Z,7.03
2023-02-19T14:17:45.779Z,8.55
2023-02-19T14:20:15.306Z,5.78
2023-02-19T14:22:49.019Z,4.82
2023-02-19T14:25:38.522Z,4.88
2023-02-19T14:28:17.252Z,4.83
2023-02-19T14:31:21.890Z,5.32
2023-02-19T14:33:50.591Z,5.05
2023-02-19T14:36:39.155Z,4.07
2023-02-19T14:39:14.011Z,4.90
2023-02-19T14:41:42.431Z,5.00
2023-02-19T14:44:25.859Z,6.18
2023-02-19T14:46:58.644Z,14.85
2023-02-19T14:49:31.818Z,20.25
2023-02-19T14:52:00.606Z,18.52
2023-02-19T14:55:01.650Z,17.40
2023-02-19T14:57:33.789Z,18.42
2023-02-19T15:00:03.201Z,19.33
2023-02-19T15:02:31.107Z,18.27
2023-02-19T15:04:58.078Z,17.33
2023-02-19T15:07:30.079Z,14.80
2023-02-19T15:10:02.919Z,16.50
2023-02-19T15:12:58.176Z,13.98
2023-02-19T15:15:28.299Z,12.75
2023-02-19T15:17:55.496Z,15.38
2023-02-19T15:20:33.030Z,11.27
2023-02-19T15:23:00.032Z,12.43
2023-02-19T15:25:33.833Z,8.57
2023-02-19T15:28:37.238Z,8.52
2023-02-19T15:31:07.825Z,8.45
2023-02-19T15:33:34.974Z,8.67
2023-02-19T15:36:06.020Z,7.22
2023-02-19T15:38:33.622Z,9.13
2023-02-19T15:41:00.835Z,6.13
2023-02-19T15:43:53.918Z,6.68
2023-02-19T15:46:25.055Z,6.50
2023-02-19T15:49:01.880Z,7.68
2023-02-19T15:51:58.582Z,6.38
2023-02-19T15:54:28.597Z,6.75
2023-02-19T15:56:57.125Z,7.35
2023-02-19T15:59:29.836Z,8.80
2023-02-19T16:01:56.888Z,6.90
2023-02-19T16:04:23.837Z,7.97
2023-02-19T16:07:01.420Z,6.53
2023-02-19T16:09:33.742Z,6.55
2023-02-19T16:12:01.361Z,6.90
2023-02-19T16:14:32.973Z,5.93
2023-02-19T16:17:11.990Z,6.65
2023-02-19T16:20:00.689Z,4.75
2023-02-19T16:22:29.820Z,9.68
2023-02-19T16:24:58.594Z,7.57
2023-02-19T16:27:29.324Z,6.50
2023-02-19T16:29:56.209Z,6.15
2023-02-19T16:32:23.067Z,4.30
2023-02-19T16:34:50.966Z,4.88
2023-02-19T16:37:29.682Z,7.27
2023-02-19T16:40:08.678Z,9.15
2023-02-19T16:43:09.981Z,8.43
2023-02-19T16:45:36.863Z,5.88
2023-02-19T16:48:04.367Z,6.25
2023-02-19T16:50:31.248Z,7.17
2023-02-19T16:53:02.281Z,6.30
2023-02-19T16:55:29.561Z,7.03
2023-02-19T16:57:56.364Z,7.50
2023-02-19T17:00:24.923Z,8.57
2023-02-19T17:02:56.494Z,7.73
2023-02-19T17:05:23.621Z,7.28
2023-02-19T17:07:50.450Z,8.00
2023-02-19T17:10:23.078Z,6.95
2023-02-19T17:12:50.844Z,5.72
2023-02-19T17:15:18.200Z,7.25
2023-02-19T17:17:45.195Z,6.05
2023-02-19T17:20:18.123Z,6.57
2023-02-19T17:22:45.020Z,8.55
2023-02-19T17:25:11.939Z,5.80
2023-02-19T17:27:38.778Z,5.60
2023-02-19T17:30:28.425Z,5.40
2023-02-19T17:32:55.423Z,6.03
2023-02-19T17:35:22.295Z,5.10
2023-02-19T17:37:49.635Z,4.63
2023-02-19T17:40:33.594Z,4.73
2023-02-19T17:43:01.192Z,7.88
2023-02-19T17:45:28.140Z,8.18
2023-02-19T17:47:54.951Z,5.07
2023-02-19T17:50:24.572Z,6.90
2023-02-19T17:52:51.476Z,7.17
2023-02-19T17:55:18.537Z,5.78
2023-02-19T17:57:48.762Z,7.00
2023-02-19T18:00:20.457Z,6.50
2023-02-19T18:02:47.384Z,7.88
2023-02-19T18:05:14.214Z,9.70
2023-02-19T18:07:41.289Z,6.72
2023-02-19T18:10:08.517Z,6.70
2023-02-19T18:12:35.394Z,6.93
2023-02-19T18:15:02.356Z,7.55
2023-02-19T18:17:29.217Z,5.43
2023-02-19T18:19:56.116Z,5.45
2023-02-19T18:22:22.973Z,5.65
2023-02-19T18:24:50.867Z,5.85
2023-02-19T18:27:19.297Z,5.32
2023-02-19T18:29:51.860Z,6.07
2023-02-19T18:32:19.817Z,6.43
2023-02-19T18:34:50.845Z,5.22
2023-02-19T18:37:17.738Z,9.48
2023-02-19T18:39:44.901Z,7.90
2023-02-19T18:42:12.527Z,5.20
2023-02-19T18:44:39.404Z,6.05
2023-02-19T18:47:06.799Z,8.65
2023-02-19T18:49:33.656Z,6.95
2023-02-19T18:52:01.476Z,6.88
2023-02-19T18:54:29.296Z,7.93
2023-02-19T18:56:56.200Z,8.48
2023-02-19T18:59:23.178Z,7.65
2023-02-19T19:01:50.915Z,8.13
2023-02-19T19:04:17.927Z,8.82
2023-02-19T19:06:44.820Z,6.88
2023-02-19T19:09:11.772Z,8.00
2023-02-19T19:11:38.645Z,8.55
2023-02-19T19:14:05.588Z,8.77
2023-02-19T19:16:32.824Z,8.13
2023-02-19T19:18:59.687Z,6.47
2023-02-19T19:21:26.545Z,8.38
2023-02-19T19:23:53.383Z,9.25
2023-02-19T19:26:20.388Z,8.15
2023-02-19T19:28:47.411Z,11.15
2023-02-19T19:31:15.604Z,10.97
2023-02-19T19:33:43.116Z,9.23
2023-02-19T19:36:10.751Z,8.35
2023-02-19T19:38:37.828Z,11.02
2023-02-19T19:41:05.152Z,10.40
2023-02-19T19:43:32.673Z,8.13
2023-02-19T19:45:59.547Z,12.02
2023-02-19T19:48:29.237Z,8.85
2023-02-19T19:50:57.185Z,13.02
2023-02-19T19:53:24.354Z,9.40
2023-02-19T19:55:51.149Z,9.03
2023-02-19T19:58:20.997Z,7.63
2023-02-19T20:00:47.806Z,12.30
2023-02-19T20:03:14.605Z,11.98
2023-02-19T20:05:41.412Z,10.10
2023-02-19T20:08:08.191Z,10.00
2023-02-19T20:10:34.986Z,9.07
2023-02-19T20:13:01.885Z,10.45
2023-02-19T20:15:28.649Z,10.13
2023-02-19T20:17:55.505Z,7.63
2023-02-19T20:20:22.817Z,8.50
2023-02-19T20:22:51.847Z,7.30
2023-02-19T20:25:20.061Z,8.93
2023-02-19T20:27:50.354Z,9.30
2023-02-19T20:30:17.903Z,8.23
2023-02-19T20:32:44.718Z,9.40
2023-02-19T20:35:11.619Z,8.57
2023-02-19T20:37:39.245Z,8.15
2023-02-19T20:40:06.981Z,9.90
2023-02-19T20:42:33.830Z,6.05
2023-02-19T20:45:00.706Z,10.30
2023-02-19T20:47:28.204Z,7.85
2023-02-19T20:49:55.122Z,12.05
2023-02-19T20:52:21.917Z,7.53
2023-02-19T20:54:48.713Z,7.72
2023-02-19T20:57:15.485Z,6.87
2023-02-19T20:59:44.372Z,9.70
2023-02-19T21:02:19.668Z,8.18
2023-02-19T21:04:46.660Z,7.22
2023-02-19T21:07:13.448Z,3.85
2023-02-19T21:09:40.290Z,6.17
2023-02-19T21:12:07.275Z,7.22
2023-02-19T21:14:34.123Z,3.90
2023-02-19T21:17:00.962Z,7.07
2023-02-19T21:19:27.833Z,5.40
2023-02-19T21:21:54.653Z,6.37
2023-02-19T21:24:21.527Z,5.57
2023-02-19T21:26:48.403Z,3.33
2023-02-19T21:29:20.154Z,3.55
2023-02-19T21:31:49.337Z,5.80
2023-02-19T21:34:17.928Z,7.20
2023-02-19T21:36:44.777Z,7.75
2023-02-19T21:39:14.358Z,6.65
2023-02-19T21:41:41.236Z,6.65
2023-02-19T21:44:08.049Z,6.00
2023-02-19T21:46:34.894Z,3.53
2023-02-19T21:49:01.969Z,7.63
2023-02-19T21:51:33.944Z,8.27
2023-02-19T21:54:00.764Z,4.65
2023-02-19T21:56:29.109Z,4.25
2023-02-19T21:58:56.122Z,6.93
2023-02-19T22:01:24.195Z,6.28
2023-02-19T22:03:51.102Z,5.63
2023-02-19T22:06:17.959Z,6.28
2023-02-19T22:08:45.012Z,4.32
2023-02-19T22:11:11.818Z,5.97
2023-02-19T22:13:39.778Z,4.90
2023-02-19T22:16:06.803Z,5.65
2023-02-19T22:18:33.617Z,4.03
2023-02-19T22:21:00.609Z,4.97
2023-02-19T22:23:27.423Z,4.63
2023-02-19T22:25:54.239Z,5.03
2023-02-19T22:28:21.031Z,6.47
2023-02-19T22:30:47.941Z,4.80
2023-02-19T22:33:14.732Z,3.20
2023-02-19T22:35:41.714Z,8.30
2023-02-19T22:38:08.482Z,6.72
2023-02-19T22:40:35.315Z,4.45
2023-02-19T22:43:02.085Z,6.43
2023-02-19T22:45:28.863Z,4.25
2023-02-19T22:47:56.143Z,3.43
2023-02-19T22:50:23.214Z,7.50
2023-02-19T22:52:50.442Z,5.53
2023-02-19T22:55:18.224Z,4.47
2023-02-19T22:57:44.999Z,5.32
2023-02-19T23:00:20.911Z,7.33
2023-02-19T23:02:48.753Z,3.88
2023-02-19T23:05:16.358Z,5.00
2023-02-19T23:07:44.472Z,5.93
2023-02-19T23:10:12.227Z,7.95
2023-02-19T23:12:39.333Z,5.60
2023-02-19T23:15:06.677Z,5.20
2023-02-19T23:17:33.465Z,6.13
2023-02-19T23:20:01.490Z,5.60
2023-02-19T23:22:28.587Z,5.97
2023-02-19T23:24:55.417Z,6.13
2023-02-19T23:27:24.283Z,5.75
2023-02-19T23:29:51.131Z,5.30
2023-02-19T23:32:21.016Z,8.05
2023-02-19T23:34:48.364Z,4.38
2023-02-19T23:37:15.195Z,6.57
2023-02-19T23:39:42.005Z,5.32
2023-02-19T23:42:12.352Z,4.45
2023-02-19T23:44:39.635Z,5.32
2023-02-19T23:47:06.405Z,4.60
2023-02-19T23:49:33.179Z,6.30
2023-02-19T23:51:59.962Z,5.50
2023-02-19T23:54:26.720Z,5.20
2023-02-19T23:56:53.508Z,6.20
2023-02-19T23:59:20.271Z,6.47
